Time;durP1;ratioP1;P1;durP2;ratioP2;P2;SDS_P1;SDS_P2;PMS_P1;PMS_P2;Temp;Humidity;BMP_temperature;BMP_pressure;BME280_temperature;BME280_humidity;BME280_pressure;Samples;Min_cycle;Max_cycle;Signal;HPM_P1;HPM_P2
2022/12/10 00:01:41;;;;;;;79.37;43.17;;;;;;;4.22;67.59;99239.72;4942624;28;100726;-86
2022/12/10 00:04:07;;;;;;;75.97;41.37;;;;;;;4.18;67.47;99229.41;4955585;28;97250;-85
2022/12/10 00:06:34;;;;;;;85.43;43.77;;;;;;;4.28;67.04;99230.91;4973746;28;96888;-85
2022/12/10 00:09:00;;;;;;;85.80;42.80;;;;;;;4.15;67.25;99209.56;4955275;28;101331;-87
2022/12/10 00:11:26;;;;;;;75.03;41.40;;;;;;;4.27;67.32;99226.59;4941716;28;101761;-86
2022/12/10 00:13:53;;;;;;;79.87;41.53;;;;;;;4.28;67.33;99217.91;4955784;28;96827;-86
2022/12/10 00:16:20;;;;;;;83.77;41.77;;;;;;;4.28;67.28;99220.50;4968325;28;97148;-86
2022/12/10 00:18:46;;;;;;;80.10;41.77;;;;;;;4.33;66.96;99229.03;4958246;28;101558;-85
2022/12/10 00:21:15;;;;;;;83.77;41.30;;;;;;;4.26;67.32;99230.09;4958794;28;97999;-86
2022/12/10 00:23:41;;;;;;;83.20;42.33;;;;;;;4.29;67.10;99224.81;4957495;28;97207;-87
2022/12/10 00:26:22;;;;;;;88.07;42.50;;;;;;;4.32;66.93;99227.31;4939611;28;96983;-87
2022/12/10 00:28:48;;;;;;;84.37;41.60;;;;;;;4.32;66.90;99225.56;4958119;28;101169;-86
2022/12/10 00:31:25;;;;;;;79.50;40.73;;;;;;;4.19;67.10;99205.13;4958612;28;101281;-85
2022/12/10 00:33:53;;;;;;;78.47;39.87;;;;;;;4.15;67.05;99200.94;4957671;28;96679;-87
2022/12/10 00:36:22;;;;;;;76.60;39.20;;;;;;;4.24;67.04;99211.94;4954480;28;96917;-87
2022/12/10 00:38:48;;;;;;;76.30;39.73;;;;;;;4.26;66.89;99217.09;4944818;28;98542;-87
2022/12/10 00:41:14;;;;;;;72.97;37.20;;;;;;;4.28;66.80;99217.91;4941025;28;101026;-86
2022/12/10 00:43:40;;;;;;;78.43;39.93;;;;;;;4.30;66.75;99211.78;4956493;28;97542;-86
2022/12/10 00:46:06;;;;;;;84.90;39.57;;;;;;;4.24;66.74;99206.72;4942639;28;96847;-86
2022/12/10 00:48:33;;;;;;;78.63;39.37;;;;;;;4.29;66.97;99214.41;4957935;28;98433;-86
2022/12/10 00:50:59;;;;;;;74.83;39.37;;;;;;;4.26;67.04;99219.69;4959556;28;101305;-86
2022/12/10 00:53:26;;;;;;;80.93;40.60;;;;;;;4.21;66.94;99214.59;4973505;28;97214;-87
2022/12/10 00:55:52;;;;;;;83.73;40.23;;;;;;;4.26;66.71;99222.28;4944486;28;97384;-85
2022/12/10 00:58:18;;;;;;;72.97;38.97;;;;;;;4.28;66.89;99229.16;4955375;28;100718;-87
2022/12/10 01:00:44;;;;;;;79.87;39.30;;;;;;;4.17;66.83;99225.97;4955711;28;97880;-87
2022/12/10 01:03:09;;;;;;;80.27;40.53;;;;;;;4.15;67.10;99213.91;4956157;28;97234;-86
2022/12/10 01:05:35;;;;;;;79.43;39.37;;;;;;;4.16;66.83;99215.59;4955694;28;97143;-87
2022/12/10 01:08:00;;;;;;;83.17;41.20;;;;;;;4.19;67.11;99218.13;4939458;28;101616;-86
2022/12/10 01:10:26;;;;;;;72.37;38.13;;;;;;;4.23;66.80;99217.19;4952761;28;101940;-87
2022/12/10 01:12:51;;;;;;;80.40;40.67;;;;;;;4.19;67.10;99216.41;4961685;28;96794;-87
2022/12/10 01:15:17;;;;;;;83.13;38.90;;;;;;;4.14;67.17;99233.00;4984248;28;96879;-87
2022/12/10 01:17:43;;;;;;;77.37;37.37;;;;;;;4.16;67.09;99237.28;4972156;28;97912;-88
2022/12/10 01:20:09;;;;;;;79.60;38.30;;;;;;;4.08;67.45;99223.63;4939345;28;102029;-87
2022/12/10 01:22:35;;;;;;;80.67;38.83;;;;;;;4.15;67.17;99242.50;4952811;28;96852;-87
2022/12/10 01:25:00;;;;;;;78.10;37.10;;;;;;;3.94;67.60;99210.13;4972726;28;96796;-87
2022/12/10 01:27:26;;;;;;;74.10;36.60;;;;;;;4.17;67.31;99251.09;4972861;28;98476;-86
2022/12/10 01:29:54;;;;;;;83.23;39.67;;;;;;;4.18;66.98;99245.84;4959457;28;101823;-87
2022/12/10 01:32:20;;;;;;;75.90;35.53;;;;;;;4.17;66.84;99246.75;4954527;28;96879;-86
2022/12/10 01:34:45;;;;;;;76.23;37.87;;;;;;;4.17;67.04;99246.75;4953407;28;97212;-85
2022/12/10 01:37:11;;;;;;;74.13;37.13;;;;;;;4.07;67.05;99224.50;4954024;28;101427;-87
2022/12/10 01:39:37;;;;;;;80.63;37.87;;;;;;;4.25;66.93;99250.03;4937583;28;100045;-87
2022/12/10 01:42:03;;;;;;;82.60;39.17;;;;;;;3.98;66.86;99201.34;4965910;28;96776;-85
2022/12/10 01:44:28;;;;;;;75.53;35.03;;;;;;;4.21;66.91;99250.97;4974322;28;96908;-86
2022/12/10 01:47:00;;;;;;;81.10;38.37;;;;;;;4.17;66.82;99246.75;4968153;28;101554;-86
2022/12/10 01:49:37;;;;;;;76.25;35.33;;;;;;;4.19;67.28;99246.69;4945708;28;101138;-85
2022/12/10 01:52:06;;;;;;;75.33;36.43;;;;;;;4.23;66.88;99240.56;4941297;28;98024;-86
2022/12/10 01:54:34;;;;;;;74.03;35.97;;;;;;;4.12;66.97;99224.38;4957102;28;97030;-87
2022/12/10 01:57:02;;;;;;;81.47;36.87;;;;;;;4.21;66.93;99237.97;4957202;28;98026;-86
2022/12/10 01:59:28;;;;;;;75.27;37.57;;;;;;;4.17;66.93;99227.72;4956694;28;101348;-85
2022/12/10 02:02:06;;;;;;;70.77;34.10;;;;;;;4.28;66.83;99230.91;4956439;28;97096;-87
2022/12/10 02:04:36;;;;;;;77.30;36.77;;;;;;;4.14;66.85;99225.22;4972121;28;97191;-87
2022/12/10 02:07:40;;;;;;;74.43;36.50;;;;;;;4.17;67.17;99240.72;4963984;28;101232;-85
2022/12/10 02:10:18;;;;;;;79.63;35.80;;;;;;;4.22;67.00;99244.06;4960203;28;101823;-86
2022/12/10 02:12:57;;;;;;;71.60;35.60;;;;;;;4.15;67.27;99229.50;4970969;28;97484;-86
2022/12/10 02:15:48;;;;;;;75.80;36.20;;;;;;;4.18;67.08;99227.66;4953791;28;96745;-86
2022/12/10 02:18:19;;;;;;;80.73;37.17;;;;;;;4.15;67.30;99232.94;4938725;28;103968;-87
2022/12/10 02:20:50;;;;;;;76.82;36.10;;;;;;;4.09;67.11;99236.56;4958119;28;103633;-87
2022/12/10 02:23:24;;;;;;;78.27;35.90;;;;;;;4.08;66.90;99229.66;4960827;28;97173;-85
2022/12/10 02:25:59;;;;;;;75.23;36.87;;;;;;;3.96;67.18;99211.78;4935279;28;97266;-86
2022/12/10 02:28:37;;;;;;;74.97;36.53;;;;;;;4.11;67.46;99230.47;4959064;28;101662;-87
2022/12/10 02:31:05;;;;;;;73.60;36.00;;;;;;;4.07;67.25;99232.28;4945316;28;100371;-86
2022/12/10 02:33:33;;;;;;;71.73;34.87;;;;;;;4.09;67.61;99235.69;4974487;28;97282;-87
2022/12/10 02:35:59;;;;;;;77.27;36.83;;;;;;;4.12;66.94;99240.81;4979842;28;97134;-86
2022/12/10 02:38:36;;;;;;;75.47;36.10;;;;;;;4.08;67.31;99244.41;4959916;28;100691;-85
2022/12/10 02:41:05;;;;;;;74.57;36.23;;;;;;;4.12;67.24;99248.59;4957114;28;100327;-86
2022/12/10 02:43:32;;;;;;;77.20;35.60;;;;;;;4.11;67.14;99249.50;4960762;28;97079;-85
2022/12/10 02:45:59;;;;;;;81.67;36.97;;;;;;;4.04;67.26;99243.63;4939644;28;97571;-85
2022/12/10 02:48:25;;;;;;;75.93;36.07;;;;;;;3.99;67.04;99232.50;4967612;28;100147;-85
2022/12/10 02:50:51;;;;;;;74.70;35.23;;;;;;;4.08;67.50;99252.19;4972634;28;101374;-86
2022/12/10 02:53:17;;;;;;;73.23;37.03;;;;;;;4.11;67.25;99252.09;4944456;28;97057;-87
2022/12/10 02:56:12;;;;;;;73.83;35.43;;;;;;;4.15;67.24;99248.53;4957975;28;97651;-85
2022/12/10 02:59:15;;;;;;;70.77;33.40;;;;;;;4.17;67.31;99256.31;4941835;28;101557;-86
2022/12/10 03:02:02;;;;;;;74.17;36.20;;;;;;;4.16;66.89;99263.25;4988256;28;100699;-87
2022/12/10 03:04:39;;;;;;;82.40;39.03;;;;;;;4.14;67.03;99253.78;4960355;28;96998;-87
2022/12/10 03:07:10;;;;;;;72.43;34.73;;;;;;;4.13;67.12;99247.75;4965328;28;97163;-85
2022/12/10 03:09:51;;;;;;;73.97;35.90;;;;;;;4.14;67.10;99258.97;4959222;28;98252;-87
2022/12/10 03:12:25;;;;;;;74.53;37.83;;;;;;;4.12;67.18;99260.75;4959864;28;101172;-86
2022/12/10 03:14:51;;;;;;;80.57;35.73;;;;;;;3.98;67.15;99237.69;4959028;28;97086;-86
2022/12/10 03:17:17;;;;;;;75.60;36.10;;;;;;;4.14;67.31;99269.38;4943503;28;97307;-86
2022/12/10 03:19:46;;;;;;;79.13;35.60;;;;;;;4.14;67.34;99267.63;4974402;28;101009;-86
2022/12/10 03:22:13;;;;;;;79.37;38.60;;;;;;;4.16;67.25;99268.44;4958583;28;100791;-87
2022/12/10 03:24:39;;;;;;;81.30;37.90;;;;;;;4.03;67.30;99235.84;4960338;28;97145;-86
2022/12/10 03:27:06;;;;;;;84.03;36.97;;;;;;;4.05;67.27;99249.66;4960504;28;97180;-85
2022/12/10 03:29:47;;;;;;;77.33;35.13;;;;;;;4.00;67.69;99239.38;4959565;28;97994;-87
2022/12/10 03:32:14;;;;;;;73.20;35.27;;;;;;;4.16;67.28;99273.63;4936219;28;100408;-86
2022/12/10 03:34:40;;;;;;;77.77;34.43;;;;;;;4.11;67.16;99262.50;4949520;28;97099;-87
2022/12/10 03:37:06;;;;;;;76.20;37.13;;;;;;;4.19;67.01;99277.88;4953872;28;96897;-87
2022/12/10 03:39:32;;;;;;;74.93;34.50;;;;;;;4.21;67.03;99270.91;4954738;28;101531;-86
2022/12/10 03:41:57;;;;;;;73.93;35.90;;;;;;;4.16;67.04;99264.97;4957926;28;99893;-86
2022/12/10 03:44:30;;;;;;;77.77;36.90;;;;;;;4.09;67.39;99253.88;4959653;28;97159;-85
2022/12/10 03:46:56;;;;;;;76.77;35.60;;;;;;;4.22;67.22;99267.44;4975498;28;97135;-86
2022/12/10 03:49:22;;;;;;;83.37;36.83;;;;;;;4.20;67.05;99259.66;4942986;28;101615;-86
2022/12/10 03:51:47;;;;;;;73.30;34.67;;;;;;;4.11;66.95;99252.09;4959222;28;98745;-85
2022/12/10 03:54:13;;;;;;;78.33;36.07;;;;;;;4.19;66.91;99267.47;4943516;28;96715;-87
2022/12/10 03:56:38;;;;;;;78.80;36.47;;;;;;;4.12;66.87;99264.19;4958255;28;97226;-87
2022/12/10 03:59:04;;;;;;;79.17;35.37;;;;;;;4.10;67.37;99263.38;4958670;28;99954;-87
2022/12/10 04:01:29;;;;;;;78.60;36.30;;;;;;;4.14;66.67;99265.03;4959248;28;100830;-86
2022/12/10 04:03:55;;;;;;;76.93;35.03;;;;;;;4.16;66.62;99275.34;4958626;28;97219;-86
2022/12/10 04:06:20;;;;;;;71.90;35.27;;;;;;;4.13;66.92;99272.84;4943062;28;97039;-86
2022/12/10 04:08:47;;;;;;;75.03;34.80;;;;;;;4.09;67.23;99272.06;4958007;28;101187;-86
2022/12/10 04:11:14;;;;;;;73.40;34.10;;;;;;;4.09;66.87;99280.69;4959248;28;101379;-86
2022/12/10 04:16:27;;;;;;;67.30;33.50;;;;;;;4.12;66.87;99286.72;4976111;28;97247;-86
2022/12/10 04:18:59;;;;;;;69.53;31.33;;;;;;;4.09;66.91;99283.31;4958226;28;100093;-86
2022/12/10 04:26:57;;;;;;;58.13;30.50;;;;;;;3.92;66.34;99284.59;4961145;28;96810;-86
2022/12/10 04:29:25;;;;;;;59.63;30.03;;;;;;;3.78;66.60;99272.81;4958458;28;100537;-87
2022/12/10 04:31:51;;;;;;;65.43;31.33;;;;;;;3.89;66.64;99297.66;4957750;28;100979;-86
2022/12/10 04:34:17;;;;;;;59.97;31.97;;;;;;;3.89;66.78;99295.06;4958510;28;97210;-86
2022/12/10 04:36:43;;;;;;;60.20;30.80;;;;;;;3.92;66.43;99293.22;4975114;28;97930;-86
2022/12/10 04:39:11;;;;;;;57.50;30.00;;;;;;;3.86;66.35;99291.63;4971420;28;101376;-85
2022/12/10 04:41:40;;;;;;;61.83;30.17;;;;;;;3.91;66.19;99291.53;4949023;28;100887;-86
2022/12/10 04:44:05;;;;;;;55.93;28.73;;;;;;;3.79;66.40;99292.66;4954696;28;96842;-86
2022/12/10 04:46:31;;;;;;;53.00;29.17;;;;;;;3.82;66.59;99287.41;4959173;28;96887;-86
2022/12/10 04:48:57;;;;;;;60.10;29.90;;;;;;;3.84;66.10;99300.38;4974249;28;100180;-86
2022/12/10 04:51:22;;;;;;;60.57;30.47;;;;;;;3.86;66.00;99304.59;4948122;28;101489;-86
2022/12/10 04:53:48;;;;;;;57.00;30.03;;;;;;;3.88;66.67;99309.78;4974383;28;97214;-86
2022/12/10 04:56:13;;;;;;;59.40;30.27;;;;;;;3.82;66.03;99287.41;4959063;28;96673;-85
2022/12/10 04:58:39;;;;;;;57.43;29.50;;;;;;;3.80;66.21;99281.38;4956541;28;99493;-87
2022/12/10 05:01:06;;;;;;;64.90;31.53;;;;;;;3.91;66.27;99299.31;4974112;28;98790;-87
2022/12/10 05:03:32;;;;;;;60.63;31.77;;;;;;;3.89;66.11;99302.84;4957472;28;96976;-87
2022/12/10 05:06:04;;;;;;;59.03;29.50;;;;;;;3.91;66.08;99299.31;4958654;28;97091;-86
2022/12/10 05:08:30;;;;;;;55.10;28.63;;;;;;;3.93;66.29;99294.97;4942584;28;101081;-87
2022/12/10 05:11:01;;;;;;;55.27;29.47;;;;;;;3.92;65.92;99298.44;4957940;28;101517;-87
2022/12/10 05:13:26;;;;;;;51.67;27.57;;;;;;;3.87;66.09;99292.50;4956497;28;96727;-86
2022/12/10 05:15:52;;;;;;;49.47;26.23;;;;;;;3.90;66.22;99296.75;4938610;28;96926;-86
2022/12/10 05:18:17;;;;;;;57.57;28.20;;;;;;;3.93;65.63;99307.94;4939590;28;101723;-86
2022/12/10 05:20:43;;;;;;;49.67;28.47;;;;;;;3.90;66.07;99314.94;4969494;28;98063;-88
2022/12/10 05:26:01;;;;;;;54.97;29.17;;;;;;;3.91;65.63;99312.31;4974810;28;96740;-86
2022/12/10 05:28:27;;;;;;;60.33;29.13;;;;;;;3.92;65.60;99324.38;4966967;28;100299;-87
2022/12/10 05:30:53;;;;;;;53.20;28.33;;;;;;;3.88;65.82;99316.72;4955361;28;101058;-86
2022/12/10 05:33:18;;;;;;;51.77;27.57;;;;;;;3.93;65.61;99327.88;4958305;28;97357;-87
2022/12/10 05:35:52;;;;;;;51.57;27.20;;;;;;;3.87;65.74;99318.47;4972961;28;97291;-86
2022/12/10 05:38:17;;;;;;;49.77;27.90;;;;;;;3.85;65.71;99312.44;4940923;28;101228;-85
2022/12/10 05:40:43;;;;;;;51.70;28.27;;;;;;;3.90;65.34;99328.78;4974836;28;98110;-86
2022/12/10 05:43:09;;;;;;;48.63;28.43;;;;;;;3.90;65.87;99328.78;4954395;28;97288;-86
2022/12/10 05:45:34;;;;;;;46.23;27.03;;;;;;;3.84;65.62;99324.59;4957979;28;97397;-86
2022/12/10 05:48:00;;;;;;;48.53;26.10;;;;;;;3.82;65.92;99326.34;4954384;28;101777;-87
2022/12/10 05:50:26;;;;;;;46.87;26.40;;;;;;;3.73;65.79;99318.78;4956501;28;101586;-86
2022/12/10 05:52:52;;;;;;;49.50;27.70;;;;;;;3.75;65.85;99314.41;4973990;28;97360;-86
2022/12/10 05:55:19;;;;;;;50.80;27.70;;;;;;;3.75;65.22;99319.59;4957359;28;97885;-86
2022/12/10 05:57:45;;;;;;;49.53;26.03;;;;;;;3.75;65.47;99314.41;4956565;28;101008;-87
2022/12/10 06:00:11;;;;;;;49.27;27.40;;;;;;;3.64;65.74;99308.59;4973150;28;98510;-86
2022/12/10 06:02:39;;;;;;;44.57;27.07;;;;;;;3.62;66.06;99320.75;4958226;28;96899;-86
2022/12/10 06:05:05;;;;;;;46.63;25.17;;;;;;;3.59;65.96;99316.47;4941669;28;97224;-85
2022/12/10 06:07:30;;;;;;;51.23;27.13;;;;;;;3.65;66.07;99317.22;4957683;28;98139;-85
2022/12/10 06:09:56;;;;;;;49.73;27.47;;;;;;;3.59;65.86;99313.88;4956817;28;98472;-86
2022/12/10 06:12:21;;;;;;;48.10;27.33;;;;;;;3.66;65.93;99322.38;4940235;28;97178;-86
2022/12/10 06:14:47;;;;;;;47.60;27.17;;;;;;;3.67;66.03;99312.88;4940059;28;96871;-87
2022/12/10 06:17:13;;;;;;;53.03;28.87;;;;;;;3.67;65.91;99313.72;4953626;28;101715;-86
2022/12/10 06:19:38;;;;;;;50.77;27.57;;;;;;;3.57;65.95;99304.41;4939629;28;101253;-86
2022/12/10 06:22:03;;;;;;;48.90;27.67;;;;;;;3.59;65.91;99313.88;4957026;28;96683;-85
2022/12/10 06:24:29;;;;;;;48.83;28.00;;;;;;;3.49;66.00;99290.75;4957334;28;96913;-86
2022/12/10 06:26:55;;;;;;;47.97;27.77;;;;;;;3.62;66.21;99313.81;4953825;28;98046;-86
2022/12/10 06:29:22;;;;;;;51.07;28.40;;;;;;;3.59;66.04;99313.03;4953833;28;101050;-87
2022/12/10 06:31:47;;;;;;;49.10;26.70;;;;;;;3.65;66.10;99318.09;4936851;28;97207;-87
2022/12/10 06:34:13;;;;;;;48.77;28.03;;;;;;;3.70;65.89;99329.22;4956603;28;97129;-86
2022/12/10 06:36:38;;;;;;;52.27;28.07;;;;;;;3.67;66.11;99320.66;4989408;28;97693;-87
2022/12/10 06:39:04;;;;;;;48.83;28.10;;;;;;;3.70;65.98;99318.84;4952782;28;101455;-86
2022/12/10 06:41:30;;;;;;;53.87;30.33;;;;;;;3.54;66.24;99286.31;4937529;28;97367;-86
2022/12/10 06:43:58;;;;;;;55.30;30.03;;;;;;;3.65;65.95;99320.69;4968402;28;97183;-87
2022/12/10 06:46:27;;;;;;;51.70;30.13;;;;;;;3.65;65.62;99320.69;4979690;28;97954;-86
2022/12/10 06:48:52;;;;;;;51.17;30.13;;;;;;;3.61;65.93;99313.84;4956209;28;101324;-87
2022/12/10 06:51:18;;;;;;;51.83;29.77;;;;;;;3.57;65.99;99312.19;4949940;28;97204;-86
2022/12/10 06:53:44;;;;;;;49.00;28.63;;;;;;;3.48;65.98;99328.81;4952569;28;97067;-87
2022/12/10 06:56:15;;;;;;;54.67;32.47;;;;;;;3.60;66.15;99336.34;4937453;28;102355;-87
2022/12/10 06:58:41;;;;;;;51.17;29.70;;;;;;;3.64;66.34;99342.34;4942414;28;100554;-86
2022/12/10 07:01:10;;;;;;;49.50;29.90;;;;;;;3.66;65.96;99347.47;4938566;28;96808;-86
2022/12/10 07:03:36;;;;;;;47.63;28.47;;;;;;;3.70;65.89;99346.53;4975239;28;97601;-86
2022/12/10 07:06:03;;;;;;;51.63;30.43;;;;;;;3.72;65.83;99360.31;4940033;28;101389;-86
2022/12/10 07:08:28;;;;;;;52.13;29.13;;;;;;;3.71;65.75;99351.69;4959876;28;97698;-87
2022/12/10 07:10:54;;;;;;;51.03;30.27;;;;;;;3.73;65.95;99349.91;4960461;28;96752;-85
2022/12/10 07:13:20;;;;;;;54.40;31.47;;;;;;;3.69;65.88;99340.47;4960119;28;97287;-87
2022/12/10 07:15:45;;;;;;;55.63;31.40;;;;;;;3.50;65.93;99302.84;4976587;28;98063;-87
2022/12/10 07:18:11;;;;;;;50.80;31.30;;;;;;;3.68;66.09;99353.50;4959259;28;101473;-86
2022/12/10 07:20:36;;;;;;;51.00;30.90;;;;;;;3.69;66.18;99363.00;4943691;28;97304;-86
2022/12/10 07:23:02;;;;;;;55.40;30.87;;;;;;;3.46;66.26;99358.28;4958764;28;97063;-86
2022/12/10 07:25:28;;;;;;;51.50;30.37;;;;;;;3.42;66.58;99354.91;4957625;28;101311;-87
2022/12/10 07:27:53;;;;;;;53.23;31.97;;;;;;;3.45;66.64;99356.56;4974142;28;96988;-87
2022/12/10 07:30:18;;;;;;;53.10;30.80;;;;;;;3.39;66.82;99347.16;4937774;28;96786;-88
2022/12/10 07:32:44;;;;;;;53.97;31.07;;;;;;;3.50;66.66;99359.94;4959125;28;98119;-87
2022/12/10 07:35:09;;;;;;;51.50;30.57;;;;;;;3.46;66.29;99346.19;4959120;28;101681;-86
2022/12/10 07:37:35;;;;;;;53.37;31.37;;;;;;;3.58;66.34;99350.25;4978831;28;98450;-87
2022/12/10 07:40:00;;;;;;;53.13;30.40;;;;;;;3.57;66.48;99340.75;4969274;28;96752;-86
2022/12/10 07:42:26;;;;;;;52.87;30.37;;;;;;;3.60;66.22;99338.94;4975915;28;97207;-85
2022/12/10 07:44:51;;;;;;;52.97;32.03;;;;;;;3.63;66.41;99359.63;4955670;28;101354;-87
2022/12/10 07:47:17;;;;;;;50.13;28.93;;;;;;;3.57;66.44;99343.34;4964595;28;98208;-85
2022/12/10 07:49:42;;;;;;;55.17;31.97;;;;;;;3.53;65.93;99350.34;4963276;28;97069;-85
2022/12/10 07:52:08;;;;;;;56.37;32.03;;;;;;;3.57;66.44;99371.88;4991378;28;97072;-85
2022/12/10 07:54:35;;;;;;;49.07;29.03;;;;;;;3.57;66.52;99357.16;4968276;28;98389;-86
2022/12/10 07:57:00;;;;;;;51.47;28.57;;;;;;;3.60;66.16;99366.63;4940213;28;101019;-86
2022/12/10 07:59:26;;;;;;;48.50;28.60;;;;;;;3.62;66.26;99370.06;4957498;28;96860;-86
2022/12/10 08:01:52;;;;;;;48.90;28.37;;;;;;;3.64;66.00;99373.47;4959246;28;96915;-87
2022/12/10 08:04:17;;;;;;;48.43;29.27;;;;;;;3.51;65.73;99359.03;4975641;28;97828;-86
2022/12/10 08:06:43;;;;;;;47.17;27.87;;;;;;;3.61;65.85;99387.38;4958908;28;101653;-86
2022/12/10 08:09:09;;;;;;;50.93;29.53;;;;;;;3.46;65.93;99374.72;4940811;28;97191;-87
2022/12/10 08:11:35;;;;;;;50.50;28.90;;;;;;;3.30;66.33;99358.59;4958882;28;97409;-88
2022/12/10 08:14:00;;;;;;;51.53;30.13;;;;;;;3.42;66.37;99387.78;4980804;28;98266;-87
2022/12/10 08:16:28;;;;;;;44.87;26.73;;;;;;;3.46;66.36;99382.50;4947760;28;99882;-86
2022/12/10 08:18:55;;;;;;;49.10;29.43;;;;;;;3.38;66.40;99367.09;4942329;28;97112;-86
2022/12/10 08:21:23;;;;;;;47.40;27.60;;;;;;;3.51;66.23;99385.84;4959115;28;97313;-86
2022/12/10 08:23:48;;;;;;;52.27;30.27;;;;;;;3.53;66.11;99391.00;4957446;28;97440;-87
2022/12/10 08:26:16;;;;;;;50.17;29.77;;;;;;;3.44;66.01;99367.84;4941213;28;101577;-85
2022/12/10 08:28:42;;;;;;;48.40;28.93;;;;;;;3.48;66.03;99375.53;4974885;28;96990;-86
2022/12/10 08:31:09;;;;;;;46.33;28.23;;;;;;;3.59;65.97;99388.28;4953489;28;97381;-86
2022/12/10 08:33:37;;;;;;;48.60;28.13;;;;;;;3.62;66.11;99393.41;4964512;28;98822;-87
2022/12/10 08:36:04;;;;;;;45.03;27.67;;;;;;;3.56;66.12;99383.16;4956633;28;101122;-86
2022/12/10 08:38:30;;;;;;;46.00;28.33;;;;;;;3.63;65.79;99393.38;4955349;28;97171;-87
2022/12/10 08:40:55;;;;;;;48.70;29.57;;;;;;;3.58;66.04;99384.84;4941607;28;97154;-89
2022/12/10 08:43:21;;;;;;;48.67;30.07;;;;;;;3.60;66.07;99393.44;4977864;28;97958;-88
2022/12/10 08:45:46;;;;;;;50.47;28.50;;;;;;;3.52;66.20;99377.19;4957953;28;98358;-87
2022/12/10 08:48:12;;;;;;;47.67;28.17;;;;;;;3.60;65.89;99388.25;4957121;28;97355;-88
2022/12/10 08:50:38;;;;;;;46.47;27.40;;;;;;;3.53;66.00;99378.03;4957207;28;96868;-89
2022/12/10 08:53:04;;;;;;;49.30;29.03;;;;;;;3.67;66.07;99399.38;4970502;28;101100;-88
2022/12/10 08:55:29;;;;;;;51.03;28.87;;;;;;;3.63;66.10;99393.38;4971535;28;98426;-88
2022/12/10 08:57:58;;;;;;;50.77;30.10;;;;;;;3.47;66.49;99373.81;4970608;28;97494;-88
2022/12/10 09:00:25;;;;;;;47.27;28.70;;;;;;;3.65;66.16;99397.69;4938592;28;97417;-94
2022/12/10 09:02:50;;;;;;;49.63;28.77;;;;;;;3.60;65.98;99396.03;4935793;28;100446;-86
2022/12/10 09:05:16;;;;;;;52.63;30.57;;;;;;;3.44;66.17;99378.22;4952721;28;101279;-85
2022/12/10 09:07:42;;;;;;;49.03;30.33;;;;;;;3.49;66.39;99392.81;4965303;28;96803;-86
2022/12/10 09:10:10;;;;;;;51.17;28.37;;;;;;;3.35;66.43;99385.31;4970772;28;96906;-83
2022/12/10 09:12:36;;;;;;;51.90;29.77;;;;;;;3.42;66.95;99395.56;4966243;28;100745;-84
2022/12/10 09:15:02;;;;;;;49.33;30.03;;;;;;;3.54;66.57;99408.28;4949706;28;101775;-83
2022/12/10 09:17:27;;;;;;;49.37;30.23;;;;;;;3.51;66.61;99401.41;4969308;28;96878;-82
2022/12/10 09:19:53;;;;;;;47.83;28.50;;;;;;;3.50;66.81;99391.06;4967565;28;97603;-81
2022/12/10 09:22:18;;;;;;;52.27;31.53;;;;;;;3.48;66.70;99396.28;4950186;28;101291;-80
2022/12/10 09:24:44;;;;;;;53.47;30.53;;;;;;;3.49;66.30;99395.41;4936220;28;99889;-80
2022/12/10 09:27:09;;;;;;;50.13;30.67;;;;;;;3.57;66.59;99397.84;4957602;28;97553;-79
2022/12/10 09:29:35;;;;;;;50.23;30.87;;;;;;;3.47;66.43;99381.59;4969375;28;97283;-81
2022/12/10 09:32:00;;;;;;;48.77;30.70;;;;;;;3.37;66.48;99370.56;4952249;28;101319;-80
2022/12/10 09:34:26;;;;;;;51.63;30.07;;;;;;;3.58;66.61;99400.41;4970592;28;97439;-80
2022/12/10 09:36:51;;;;;;;51.67;30.33;;;;;;;3.61;66.50;99396.91;4966240;28;96799;-80
2022/12/10 09:39:17;;;;;;;46.10;29.70;;;;;;;3.48;65.85;99398.88;4968243;28;97247;-79
2022/12/10 09:41:58;;;;;;;48.37;29.40;;;;;;;3.35;66.46;99379.25;4966949;28;98612;-85
2022/12/10 09:45:09;;;;;;;52.17;31.48;;;;;;;3.51;66.49;99406.59;4949182;28;97955;-86
2022/12/10 09:48:04;;;;;;;47.13;28.50;;;;;;;3.54;66.49;99390.13;4965880;28;96826;-86
2022/12/10 09:50:36;;;;;;;46.00;28.37;;;;;;;3.56;66.57;99399.59;4964930;28;97400;-86
2022/12/10 09:53:02;;;;;;;51.45;29.95;;;;;;;3.53;66.36;99386.66;4951030;28;101528;-86
2022/12/10 09:55:40;;;;;;;46.67;28.23;;;;;;;3.61;66.46;99389.97;4968320;28;98602;-87
2022/12/10 09:58:18;;;;;;;46.93;28.67;;;;;;;3.53;66.14;99365.06;4934218;28;98167;-86
2022/12/10 10:00:47;;;;;;;47.07;29.30;;;;;;;3.62;66.40;99381.28;4949515;28;97410;-86
2022/12/10 10:03:14;;;;;;;49.97;29.87;;;;;;;3.60;66.12;99369.22;4937755;28;100375;-86
2022/12/10 10:05:53;;;;;;;47.90;28.13;;;;;;;3.52;66.14;99345.16;4969150;28;98147;-85
2022/12/10 10:08:21;;;;;;;45.93;29.33;;;;;;;3.65;66.13;99361.34;4938613;28;97109;-85
2022/12/10 10:10:47;;;;;;;47.93;29.10;;;;;;;3.66;66.00;99350.06;4967537;28;97800;-86
2022/12/10 10:13:36;;;;;;;44.13;26.97;;;;;;;3.70;66.13;99359.53;4932080;28;100614;-86
2022/12/10 10:16:25;;;;;;;47.33;28.20;;;;;;;3.67;65.89;99347.47;4979067;28;101408;-86
2022/12/10 10:19:14;;;;;;;47.50;28.80;;;;;;;3.63;66.10;99354.44;4951787;28;96895;-86
2022/12/10 10:21:49;;;;;;;48.80;29.03;;;;;;;3.56;65.92;99344.25;4949256;28;98167;-85
2022/12/10 10:24:21;;;;;;;44.93;28.03;;;;;;;3.45;66.57;99333.22;4950758;28;100481;-86
2022/12/10 10:26:47;;;;;;;48.47;29.48;;;;;;;3.62;66.13;99347.53;4948604;28;97850;-85
2022/12/10 10:29:17;;;;;;;44.23;28.43;;;;;;;3.67;66.21;99346.63;4960878;28;97446;-87
2022/12/10 10:31:43;;;;;;;45.80;28.60;;;;;;;3.71;66.23;99348.25;4950353;28;97294;-87
2022/12/10 10:34:21;;;;;;;43.77;27.03;;;;;;;3.77;66.16;99348.09;4947995;28;101358;-87
2022/12/10 10:36:47;;;;;;;45.53;27.37;;;;;;;3.76;66.23;99349.00;4934525;28;101419;-86
2022/12/10 10:39:16;;;;;;;47.47;28.93;;;;;;;3.75;65.88;99353.34;4966238;28;97409;-86
2022/12/10 10:41:41;;;;;;;47.03;27.23;;;;;;;3.71;65.79;99335.25;4951545;28;97570;-85
2022/12/10 10:44:19;;;;;;;46.03;29.17;;;;;;;3.79;65.85;99346.34;4961731;28;97493;-86
2022/12/10 10:46:46;;;;;;;48.63;29.30;;;;;;;3.71;65.82;99330.91;4955703;28;99898;-87
2022/12/10 10:49:24;;;;;;;44.07;28.23;;;;;;;3.74;65.73;99345.56;4939401;28;96822;-85
2022/12/10 10:51:50;;;;;;;46.87;27.33;;;;;;;3.62;65.58;99316.41;4951889;28;97564;-86
2022/12/10 10:54:34;;;;;;;45.27;27.67;;;;;;;3.71;65.45;99337.84;4954718;28;101241;-86
2022/12/10 10:57:21;;;;;;;42.30;26.50;;;;;;;3.65;65.68;99335.41;4953568;28;101378;-85
2022/12/10 10:59:47;;;;;;;43.37;28.70;;;;;;;3.65;65.90;99332.81;4959242;28;96959;-85
2022/12/10 11:02:27;;;;;;;47.43;28.93;;;;;;;3.70;65.95;99341.34;4936593;28;97548;-86
2022/12/10 11:04:58;;;;;;;54.47;31.63;;;;;;;3.68;65.89;99337.94;4970980;28;98835;-86
2022/12/10 11:07:26;;;;;;;52.15;30.42;;;;;;;3.79;65.67;99349.78;4955741;28;101456;-86
2022/12/10 11:09:54;;;;;;;50.83;30.17;;;;;;;3.80;65.80;99353.22;4955371;28;96783;-86
2022/12/10 11:12:28;;;;;;;44.00;27.77;;;;;;;3.79;65.67;99360.16;4964108;28;97245;-85
2022/12/10 11:14:55;;;;;;;42.63;28.03;;;;;;;3.80;66.00;99356.69;4951191;28;101612;-86
2022/12/10 11:17:22;;;;;;;50.77;30.60;;;;;;;3.75;65.84;99348.16;4954318;28;101337;-86
2022/12/10 11:19:56;;;;;;;48.07;29.63;;;;;;;3.85;65.60;99360.03;4955604;28;96906;-87
2022/12/10 11:22:29;;;;;;;46.47;28.50;;;;;;;3.88;65.39;99373.84;4953030;28;96776;-87
2022/12/10 11:24:54;;;;;;;46.20;29.40;;;;;;;3.84;65.45;99362.69;4971072;28;100942;-88
2022/12/10 11:28:05;;;;;;;49.33;30.67;;;;;;;3.74;65.41;99356.81;4940427;28;101344;-87
2022/12/10 11:30:33;;;;;;;43.63;26.80;;;;;;;3.78;65.46;99368.84;4921898;28;97121;-86
2022/12/10 11:33:16;;;;;;;45.47;28.37;;;;;;;3.78;65.28;99368.84;4944420;28;96929;-80
2022/12/10 11:35:48;;;;;;;49.73;29.20;;;;;;;3.79;65.25;99367.97;4972073;28;101213;-84
2022/12/10 11:38:25;;;;;;;44.35;29.02;;;;;;;3.68;65.40;99338.78;4972394;28;98525;-83
2022/12/10 11:40:59;;;;;;;51.83;29.37;;;;;;;3.82;65.11;99369.63;4954449;28;96908;-84